• Join FlightAware (Why Join?)
  • Login
  • US Flag 
01:26AM EDT


 

Airport Tracker/Info


-or-


 

Live Flight TrackerFlight Track Log ✈ XOJ552 ✈ 20-Oct-2013 ✈ KSTS - KPGA

Flight Track Log - Related Links

Times and Time Zones

All times are in EDT time to prevent confusion due to time zone crossing. See the XOJ552 flight status page for this flight to view local times or setup timezone preferences in your user account.

Time Position Orientation Groundspeed Altitude Reporting Facility
EDT Latitude Longitude Course Direction KTS MPH feet Rate Location/Type
04:34PM 38.4900 -122.7997 87° East 152 175 1,400  Level Oakland Center
04:35PM 38.4306 -122.7617 153° Southeast 197 227 6,000 4,080 Climbing Oakland Center
04:36PM 38.3736 -122.7097 144° Southeast 247 284 9,900 3,420 Climbing Oakland Center
04:37PM 38.4299 -121.9573 80° East  Level Estimated
04:37PM 38.3719 -122.6033 91° East 298 343 13,100  Level Oakland Center
04:38PM 38.4161 -121.8148 90° East  Level Estimated
04:38PM 38.3731 -122.4858 89° East 324 373 16,800  Level Oakland Center
04:39PM 38.4021 -121.6725 87° East  Level Estimated
04:39PM 38.3750 -122.3619 89° East 342 394 20,200  Level Oakland Center
04:40PM 38.3789 -122.2333 88° East 355 409 23,300 2,940 Climbing Oakland Center
04:41PM 38.3803 -122.0983 89° East 375 432 26,300 2,760 Climbing Oakland Center
04:42PM 38.3831 -121.9597 88° East 387 445 29,000 2,400 Climbing Oakland Center
04:43PM 38.3856 -121.7858 89° East 406 467 31,300 1,980 Climbing Oakland Center
04:44PM 38.3867 -121.6353 89° East 421 484 33,100 1,860 Climbing Oakland Center
04:46PM 38.3886 -121.4711 89° East 431 496 35,200 2,040 Climbing Oakland Center
04:47PM 38.3900 -121.3217 89° East 429 494 37,400 1,920 Climbing Oakland Center
04:48PM 38.3911 -121.1775 89° East 418 481 39,200 1,320 Climbing Oakland Center
04:49PM 38.3919 -121.0322 90° East 416 479 40,200 840 Climbing Oakland Center
04:50PM 38.3928 -120.8847 90° East 419 482 41,000 360 Climbing Oakland Center
04:51PM 38.3942 -120.7008 89° East 431 496 41,000  Level Oakland Center
04:52PM 38.3950 -120.5472 90° East 434 499 41,000  Level Oakland Center
04:53PM 38.3947 -120.3919 90° East 438 504 41,000  Level Oakland Center
04:54PM 38.3956 -120.2367 90° East 438 504 41,000  Level Oakland Center
04:55PM 38.3947 -120.0814 90° East 439 505 41,000  Level Oakland Center
04:56PM 38.3939 -119.9244 90° East 443 510 41,000  Level Oakland Center
04:57PM 38.3939 -119.7681 90° East 443 510 41,000  Level Oakland Center
04:58PM 38.3931 -119.5781 90° East 446 513 41,000  Level Oakland Center
04:59PM 38.3917 -119.4392 91° East 446 513 41,000  Level Oakland Center
05:00PM 38.3906 -119.2508 90° East 445 512 41,000  Level Oakland Center
05:01PM 38.3889 -119.0944 91° East 443 510 41,000  Level Oakland Center
05:02PM 38.3869 -118.9392 91° East 442 509 41,000  Level Oakland Center
05:03PM 38.3861 -118.7828 90° East 442 509 41,000  Level Oakland Center
05:04PM 38.3836 -118.6267 91° East 442 509 41,000  Level Oakland Center
05:05PM 38.3811 -118.4703 91° East 444 511 41,000  Level Oakland Center
05:06PM 38.3792 -118.3150 91° East 442 509 41,000  Level Oakland Center
05:07PM 38.3761 -118.1250 91° East 446 513 41,000  Level Oakland Center
05:08PM 38.3733 -117.9653 91° East 447 514 41,000  Level Oakland Center
05:09PM 38.3697 -117.8064 92° East 449 517 41,000  Level Oakland Center
05:10PM 38.3664 -117.6453 91° East 452 520 41,000  Level Oakland Center
05:11PM 38.3631 -117.4844 91° East 452 520 41,000  Level Oakland Center
05:12PM 38.3589 -117.3300 92° East 453 521 41,000  Level Oakland Center
05:13PM 38.3544 -117.1386 92° East 453 521 41,000  Level Oakland Center
05:14PM 38.3500 -116.9969 92° East 452 520 41,000  Level Oakland Center
05:15PM 38.3453 -116.8367 92° East 450 518 41,000  Level Oakland Center
05:16PM 38.3403 -116.6769 92° East 448 516 41,000  Level Oakland Center
05:17PM 38.3339 -116.4872 92° East 446 513 41,000  Level Oakland Center
05:18PM 38.3283 -116.3289 93° East 447 514 41,000  Level Oakland Center
05:19PM 38.3231 -116.1686 92° East 451 519 41,000  Level Oakland Center
05:21PM 38.3172 -116.0078 93° East 455 524 41,000  Level Oakland Center
05:22PM 38.3111 -115.7828 92° East 455 524 41,000  Level Salt Lake Center
05:23PM 38.3053 -115.6211 93° East 457 526 41,000  Level Salt Lake Center
05:24PM 38.2964 -115.4278 93° East 456 525 41,000  Level Salt Lake Center
05:25PM 38.2903 -115.2636 93° East 464 534 41,000  Level Salt Lake Center
05:26PM 38.2833 -115.1011 93° East 463 533 41,000  Level Salt Lake Center
05:27PM 38.2761 -114.9397 93° East 458 527 41,000 -600 Level Salt Lake Center
05:28PM 38.2678 -114.7775 94° East 460 529 39,800 -1,320 Descending Salt Lake Center
05:29PM 38.2603 -114.6125 93° East 467 537 38,300 -1,620 Descending Salt Lake Center
05:30PM 38.2494 -114.4161 94° East 465 535 36,500 -1,560 Descending Salt Lake Center
05:31PM 38.2039 -114.2592 110° East 475 547 35,100 -780 Descending Salt Lake Center
05:32PM 38.1506 -114.1058 114° Southeast 475 547 35,000 -420 Descending Salt Lake Center
05:33PM 38.0969 -113.9511 114° Southeast 478 550 34,300 -840 Descending Salt Lake Center
05:34PM 38.0406 -113.7936 114° Southeast 487 560 33,300 -660 Descending Salt Lake Center
05:35PM 37.9864 -113.6361 114° Southeast 489 563 33,000 -180 Descending Salt Lake Center
05:36PM 37.9214 -113.4517 114° Southeast 481 554 33,000  Level Salt Lake Center
05:38PM 37.8581 -113.3000 118° Southeast 484 557 33,000 -420 Level Salt Lake Center
05:39PM 37.7844 -113.1528 122° Southeast 493 567 32,200 -1,140 Descending Salt Lake Center
05:40PM 37.7119 -113.0039 122° Southeast 495 570 30,700 -1,500 Descending Salt Lake Center
05:41PM 37.6372 -112.8519 122° Southeast 495 570 29,100 -1,560 Descending Salt Lake Center
05:42PM 37.5619 -112.6992 122° Southeast 492 566 27,500 -1,560 Descending Salt Lake Center
05:43PM 37.4906 -112.5575 122° Southeast 483 556 25,900 -1,860 Descending Salt Lake Center
05:44PM 37.4211 -112.4192 122° Southeast 474 545 23,700 -2,280 Descending Salt Lake Center
05:45PM 37.3544 -112.2872 122° Southeast 458 527 21,200 -2,700 Descending Salt Lake Center
05:46PM 37.2769 -112.1367 123° Southeast 435 501 18,200 -2,640 Descending Salt Lake Center
05:47PM 37.2272 -112.0361 122° Southeast 432 497 16,300 -2,100 Descending Denver Center
05:47PM 37.2014 -111.9881 124° Southeast 425 489 15,300 -2,640 Descending Los Angeles Center
05:48PM 37.1308 -111.8481 122° Southeast 409 471 12,200 -2,160 Descending Los Angeles Center
05:49PM 37.0783 -111.7458 123° Southeast 372 428 10,900 -1,320 Descending Los Angeles Center
05:50PM 37.0392 -111.6533 118° Southeast 330 380 9,500 -1,020 Descending Los Angeles Center
05:51PM 37.0297 -111.6150 107° East 316 364 9,400 -1,200 Descending Denver Center
05:52PM 37.0144 -111.5122 101° East 269 310 7,700 -1,800 Descending Denver Center
05:53PM 36.9994 -111.4644 111° Southeast 210 242 5,800 -1,860 Descending Denver Center